createdAt,value
2024-03-11T00:01:29.788Z,2.52
2024-03-11T00:06:33.910Z,2.49
2024-03-11T00:11:39.414Z,2.45
2024-03-11T00:16:42.819Z,2.42
2024-03-11T00:21:46.425Z,2.37
2024-03-11T00:26:50.110Z,2.34
2024-03-11T00:31:53.304Z,2.32
2024-03-11T00:36:56.868Z,2.30
2024-03-11T00:42:00.133Z,2.27
2024-03-11T00:47:06.643Z,2.24
2024-03-11T00:52:10.511Z,2.21
2024-03-11T00:57:15.149Z,2.17
2024-03-11T01:02:18.340Z,2.15
2024-03-11T01:07:27.914Z,2.13
2024-03-11T01:12:34.513Z,2.10
2024-03-11T01:17:39.012Z,2.07
2024-03-11T01:22:42.431Z,2.05
2024-03-11T01:27:46.405Z,2.02
2024-03-11T01:32:50.708Z,1.99
2024-03-11T01:37:54.280Z,1.97
2024-03-11T01:42:57.509Z,1.96
2024-03-11T01:48:00.793Z,1.94
2024-03-11T01:53:05.323Z,1.91
2024-03-11T01:58:10.785Z,1.89
2024-03-11T02:03:14.025Z,1.88
2024-03-11T02:08:17.176Z,1.86
2024-03-11T02:13:21.634Z,1.86
2024-03-11T02:18:25.350Z,1.84
2024-03-11T02:23:28.805Z,1.81
2024-03-11T02:28:32.372Z,1.78
2024-03-11T02:33:36.435Z,1.77
2024-03-11T02:38:40.057Z,1.76
2024-03-11T02:43:43.416Z,1.74
2024-03-11T02:48:46.687Z,1.72
2024-03-11T02:53:50.166Z,1.71
2024-03-11T02:58:55.156Z,1.69
2024-03-11T03:03:59.359Z,1.68
2024-03-11T03:09:02.806Z,1.67
2024-03-11T03:14:07.717Z,1.64
2024-03-11T03:19:11.017Z,1.62
2024-03-11T03:24:14.219Z,1.60
2024-03-11T03:29:19.679Z,1.56
2024-03-11T03:34:22.972Z,1.55
2024-03-11T03:39:26.458Z,1.53
2024-03-11T03:44:30.049Z,1.51
2024-03-11T03:49:33.650Z,1.49
2024-03-11T03:54:37.136Z,1.47
2024-03-11T03:59:40.505Z,1.46
2024-03-11T04:04:44.174Z,1.43
2024-03-11T04:09:47.358Z,1.41
2024-03-11T04:14:50.613Z,1.38
2024-03-11T04:19:53.891Z,1.34
2024-03-11T04:24:58.054Z,1.32
2024-03-11T04:30:01.519Z,1.30
2024-03-11T04:35:05.012Z,1.26
2024-03-11T04:40:11.136Z,1.23
2024-03-11T04:45:15.234Z,1.21
2024-03-11T04:50:25.514Z,1.18
2024-03-11T04:55:29.100Z,1.17
2024-03-11T05:00:32.802Z,1.17
2024-03-11T05:05:41.690Z,1.15
2024-03-11T05:10:44.993Z,1.13
2024-03-11T05:15:48.480Z,1.11
2024-03-11T05:20:51.902Z,1.10
2024-03-11T05:25:55.372Z,1.08
2024-03-11T05:30:58.823Z,1.07
2024-03-11T05:36:02.050Z,1.07
2024-03-11T05:41:06.627Z,1.08
2024-03-11T05:46:10.273Z,1.11
2024-03-11T05:51:13.489Z,1.13
2024-03-11T05:56:20.739Z,1.18
2024-03-11T06:01:25.177Z,1.21
2024-03-11T06:06:29.640Z,1.25
2024-03-11T06:11:32.972Z,1.29
2024-03-11T06:16:36.291Z,1.34
2024-03-11T06:21:39.688Z,1.38
2024-03-11T06:26:42.839Z,1.45
2024-03-11T06:31:47.613Z,1.50
2024-03-11T06:36:50.795Z,1.55
2024-03-11T06:41:54.300Z,1.60
2024-03-11T06:46:58.058Z,1.67
2024-03-11T06:52:01.260Z,1.72
2024-03-11T06:57:06.664Z,1.76
2024-03-11T07:02:10.148Z,1.81
2024-03-11T07:07:13.396Z,1.87
2024-03-11T07:12:19.778Z,1.92
2024-03-11T07:17:23.090Z,2.00
2024-03-11T07:22:26.310Z,2.07
2024-03-11T07:27:29.549Z,2.13
2024-03-11T07:32:32.872Z,2.19
2024-03-11T07:37:37.539Z,2.27
2024-03-11T07:42:41.248Z,2.34
2024-03-11T07:47:44.754Z,2.41
2024-03-11T07:52:48.076Z,2.48
2024-03-11T07:57:51.964Z,2.55
2024-03-11T08:02:55.385Z,2.64
2024-03-11T08:07:59.117Z,2.73
2024-03-11T08:13:02.716Z,2.83
2024-03-11T08:18:06.998Z,2.91
2024-03-11T08:23:10.862Z,2.99
2024-03-11T08:28:15.864Z,3.07
2024-03-11T08:33:21.186Z,3.14
2024-03-11T08:38:25.288Z,3.21
2024-03-11T08:43:29.618Z,3.28
2024-03-11T08:48:32.907Z,3.37
2024-03-11T08:53:36.747Z,3.45
2024-03-11T08:58:41.257Z,3.51
2024-03-11T09:03:44.717Z,3.60
2024-03-11T09:08:52.046Z,3.69
2024-03-11T09:13:58.404Z,3.77
2024-03-11T09:19:01.854Z,3.86
2024-03-11T09:24:05.704Z,3.96
2024-03-11T09:29:10.443Z,4.06
2024-03-11T09:34:13.925Z,4.16
2024-03-11T09:39:19.889Z,4.25
2024-03-11T09:44:25.109Z,4.34
2024-03-11T09:49:28.439Z,4.43
2024-03-11T09:54:31.769Z,4.51
2024-03-11T09:59:38.358Z,4.61
2024-03-11T10:04:41.681Z,4.72
2024-03-11T10:09:46.040Z,4.82
2024-03-11T10:14:51.204Z,4.91
2024-03-11T10:19:55.829Z,5.01
2024-03-11T10:24:59.782Z,5.11
2024-03-11T10:30:20.018Z,5.22
2024-03-11T10:35:23.806Z,5.33
2024-03-11T10:40:32.039Z,5.43
2024-03-11T10:45:36.295Z,5.53
2024-03-11T10:50:40.935Z,5.61
2024-03-11T10:55:46.751Z,5.72
2024-03-11T11:00:50.215Z,5.81
2024-03-11T11:05:58.384Z,5.89
2024-03-11T11:11:02.059Z,5.98
2024-03-11T11:16:08.223Z,6.09
2024-03-11T11:21:12.494Z,6.21
2024-03-11T11:26:35.851Z,6.32
2024-03-11T11:31:39.537Z,6.46
2024-03-11T11:36:59.363Z,6.56
2024-03-11T11:42:03.607Z,6.70
2024-03-11T11:47:09.362Z,6.83
2024-03-11T11:52:15.152Z,6.93
2024-03-11T11:57:22.492Z,7.02
2024-03-11T12:02:27.566Z,7.12
2024-03-11T12:07:31.224Z,7.22
2024-03-11T12:12:35.570Z,7.30
2024-03-11T12:17:40.241Z,7.39
2024-03-11T12:22:43.660Z,7.48
2024-03-11T12:27:54.467Z,7.55
2024-03-11T12:32:59.733Z,7.61
2024-03-11T12:38:04.625Z,7.64
2024-03-11T12:43:14.924Z,7.65
2024-03-11T12:48:18.574Z,7.65
2024-03-11T12:53:25.468Z,7.65
2024-03-11T12:58:28.801Z,7.67
2024-03-11T13:03:32.334Z,7.68
2024-03-11T13:08:35.672Z,7.70
2024-03-11T13:13:39.587Z,7.75
2024-03-11T13:18:46.521Z,7.80
2024-03-11T13:23:50.308Z,7.87
2024-03-11T13:28:55.277Z,7.92
2024-03-11T13:33:58.649Z,8.00
2024-03-11T13:39:01.965Z,8.08
2024-03-11T13:44:11.269Z,8.12
2024-03-11T13:49:14.896Z,8.14
2024-03-11T13:54:18.453Z,8.15
2024-03-11T13:59:21.684Z,8.13
2024-03-11T14:04:25.031Z,8.10
2024-03-11T14:09:28.316Z,8.03
2024-03-11T14:14:31.608Z,7.94
2024-03-11T14:19:36.809Z,7.85
2024-03-11T14:24:40.050Z,7.79
2024-03-11T14:29:43.477Z,7.74
2024-03-11T14:34:47.892Z,7.72
2024-03-11T14:39:55.316Z,7.70
2024-03-11T14:44:58.638Z,7.68
2024-03-11T14:50:07.824Z,7.68
2024-03-11T14:55:12.746Z,7.66
2024-03-11T15:00:21.444Z,7.65
2024-03-11T15:05:25.775Z,7.64
2024-03-11T15:10:33.384Z,7.63
2024-03-11T15:15:37.914Z,7.64
2024-03-11T15:20:48.765Z,7.63
2024-03-11T15:25:54.166Z,7.60
2024-03-11T15:30:57.774Z,7.58
2024-03-11T15:36:01.304Z,7.54
2024-03-11T15:41:06.238Z,7.49
2024-03-11T15:46:10.993Z,7.45
2024-03-11T15:51:15.991Z,7.43
2024-03-11T15:56:19.998Z,7.40
2024-03-11T16:01:25.929Z,7.40
2024-03-11T16:06:31.169Z,7.39
2024-03-11T16:11:34.622Z,7.38
2024-03-11T16:16:49.550Z,7.37
2024-03-11T16:21:55.243Z,7.38
2024-03-11T16:26:58.631Z,7.35
2024-03-11T16:32:01.994Z,7.28
2024-03-11T16:37:06.319Z,7.31
2024-03-11T16:42:09.656Z,7.30
2024-03-11T16:47:13.184Z,7.27
2024-03-11T16:52:19.686Z,7.24
2024-03-11T16:57:24.715Z,7.19
2024-03-11T17:02:31.407Z,7.14
2024-03-11T17:07:34.925Z,7.12
2024-03-11T17:12:44.336Z,7.07
2024-03-11T17:17:51.157Z,7.01
2024-03-11T17:22:55.351Z,6.96
2024-03-11T17:28:02.138Z,6.92
2024-03-11T17:33:10.078Z,6.88
2024-03-11T17:38:14.408Z,6.84
2024-03-11T17:43:19.628Z,6.78
2024-03-11T17:48:26.629Z,6.73
2024-03-11T17:53:30.197Z,6.67
2024-03-11T17:58:40.389Z,6.60
2024-03-11T18:03:44.685Z,6.53
2024-03-11T18:08:49.058Z,6.47
2024-03-11T18:13:56.288Z,6.41
2024-03-11T18:19:00.408Z,6.36
2024-03-11T18:24:04.612Z,6.31
2024-03-11T18:29:07.961Z,6.25
2024-03-11T18:34:11.433Z,6.22
2024-03-11T18:39:17.574Z,6.18
2024-03-11T18:44:21.947Z,6.13
2024-03-11T18:49:26.764Z,6.09
2024-03-11T18:54:30.440Z,6.06
2024-03-11T18:59:33.820Z,6.02
2024-03-11T19:04:37.637Z,5.99
2024-03-11T19:09:40.915Z,5.95
2024-03-11T19:14:44.291Z,5.92
2024-03-11T19:19:47.689Z,5.87
2024-03-11T19:24:51.160Z,5.84
2024-03-11T19:29:57.974Z,5.81
2024-03-11T19:35:02.434Z,5.79
2024-03-11T19:40:12.973Z,5.78
2024-03-11T19:45:32.869Z,5.76
2024-03-11T19:51:08.588Z,5.76
2024-03-11T19:56:28.535Z,5.74
2024-03-11T20:01:40.865Z,5.76
2024-03-11T20:06:55.604Z,5.76
2024-03-11T20:12:16.487Z,5.78
2024-03-11T20:17:37.608Z,5.79
2024-03-11T20:22:57.662Z,5.81
2024-03-11T20:28:05.167Z,5.82
2024-03-11T20:33:10.290Z,5.83
2024-03-11T20:38:14.284Z,5.84
2024-03-11T20:43:17.551Z,5.86
2024-03-11T20:48:21.446Z,5.87
2024-03-11T20:53:24.961Z,5.88
2024-03-11T20:58:28.726Z,5.89
2024-03-11T21:03:32.054Z,5.90
2024-03-11T21:08:36.555Z,5.92
2024-03-11T21:13:42.124Z,5.94
2024-03-11T21:18:48.066Z,5.95
2024-03-11T21:24:07.494Z,5.96
2024-03-11T21:29:10.815Z,5.98
2024-03-11T21:34:14.179Z,5.99
2024-03-11T21:39:17.455Z,6.00
2024-03-11T21:44:20.653Z,5.99
2024-03-11T21:49:23.885Z,5.99
2024-03-11T21:54:27.799Z,5.96
2024-03-11T21:59:31.316Z,6.00
2024-03-11T22:04:37.716Z,6.00
2024-03-11T22:09:41.625Z,6.01
2024-03-11T22:14:45.291Z,6.02
2024-03-11T22:19:48.593Z,6.02
2024-03-11T22:24:52.134Z,6.02
2024-03-11T22:29:55.642Z,6.02
2024-03-11T22:35:00.127Z,6.03
2024-03-11T22:40:03.816Z,6.04
2024-03-11T22:45:08.671Z,6.04
2024-03-11T22:50:12.388Z,6.04
2024-03-11T22:55:15.881Z,6.04
2024-03-11T23:00:37.310Z,6.06
2024-03-11T23:05:40.695Z,6.06
2024-03-11T23:10:43.893Z,6.08
2024-03-11T23:15:47.742Z,6.09
2024-03-11T23:20:51.390Z,6.10
2024-03-11T23:25:56.423Z,6.11
2024-03-11T23:31:00.901Z,6.11
2024-03-11T23:36:04.316Z,6.11
2024-03-11T23:41:07.594Z,6.11
2024-03-11T23:46:10.908Z,6.10
2024-03-11T23:51:14.418Z,6.10
2024-03-11T23:56:18.034Z,6.10
